Main page
METAR-TAF:

METAR-TAF

Airports :

Governor Francisco Gabrielli International Airport

Mendoza, Argentina

latitude: 32-50S, longitude: 068-47W, elevation: 705 m

Current weather observation

The report was made 39 minutes ago, at 10:00 UTC
Wind 5 kt from the South/Southwest
Temperature 13°C
Humidity 67%
Pressure 1019 hPa
Visibility 10 km or more
no clouds below 1500 m and no cumulonimbus

METAR: SAME 091000Z 21005KT CAVOK 13/07 Q1019

Time: 07:39 (10:39 UTC)

Forecast

The report was made 5 hours and 39 minutes ago, at 05:00 UTC
Forecast valid from 09 at 06 UTC to 10 at 06 UTC
Wind 8 kt from the South
Visibility 10 km or more
no clouds below 1500 m and no cumulonimbus

TAF: SAME 090500Z 0906/1006 18008KT CAVOK TX20/0920Z TN07/0911Z

Weather observations and forecasts of more than 4000 airports (METAR and TAF reports).

The available stations are represented by yellow and red dots on the map.

Hover mouse over dot to see the name of the station.

Then click to see weather observations and forecasts.

To change the map : click on the green buttons with a black cross to zoom in, on the green button with a dash to zoom out, or on the green arrows for adjacent maps.


METAR-TAF: